• NOTAM LFRU

     22/04/21 12:00Z - 20/04/22 11:59Z
    E) PROTECTION CIRCULATION ET PROCEDURES AERODROME - SUP AIP 064/21: OBJET: CREATION, A TITRE EXPERIMENTAL, D'UNE ZONE A UTILISATION OBLIGATOIRE DE LA RADIO (RMZ). CE SUP AIP EST DISPONIBLE SUR WWW.SIA.AVIATION-CIVILE.GOUV.FR

     Durée permanente depuis 17/08/21 08:25Z
    E) MET : AD RATTACHE AU CRA DE RENNES, SECOURU PAR LE CRA DE NANTES HORAIRES : 0100-2200 (SUMMER-1HR) METAR : 0600-2000 ETE, 0800-1800 HIV. REF LFRU AD2.11, GEN 3.5-9











  • PHOTOS SATELLITE

CARTE TEMSI

CARTE WINTEM

  • Vent au sol

  • Vent à 2000ft

  • ANIMATION RADAR

  • METAR/TAF LFRU (MORLAIX / Ploujean)

    LFRU 170730Z AUTO 15006KT CAVOK 14/13 Q1014

    METAR/TAF LFRB (BREST / Guipavas)

    LFRB 170730Z AUTO 15007KT 9999 FEW024 14/14 Q1013 NOSIG

    TAF LFRB 170500Z 1706/1812 16008KT CAVOK TEMPO 1706/1707 2000 BR PROB30 TEMPO 1706/1707 0500 FG VV/// TEMPO 1710/1714 19015G25KT TEMPO 1715/1808 RA OVC011 PROB40 TEMPO 1715/1806 3000 RADZ BKN005 TEMPO 1808/1812 4000 SHRA BKN005 SCT020TCU

    METAR/TAF LFRO (LANNION / Servel)

    LFRO 170730Z AUTO 15006KT CAVOK 15/13 Q1015